37.4°F
Current conditions from King Hill
Updated every 5 minutes
 
  Saturday November 22, 2014

Station Historical Data
Daily Summary for May 11, 2011 Units:  English    Metric   Both
« Previous Day
Next Day »
Daily Weekly Monthly Yearly Custom
  High: Low: Average:
Temperature: 67.6 °F 42.5 °F 55 °F
Dew Point: 48.1 °F 38.5 °F 42.7 °F
Humidity: 87% 43% 65%
Wind Speed: 7.0mph 1.0mph 2.6mph
Wind Gust: 14.0mph - -
Wind- - ENE
Pressure: 30.16 in 30.08 in -
Precipitation: 0.00 in    
Historical Graphs
 
 
Tabular Data for May 11, 2011
Time Temperature Dew Point Pressure Wind Wind Speed Wind Gust Humidity Daily Rainfall
00:04 49.8 °F 40.4 °F 30.11 in NNE 1.0 mph 3.0 mph 70% 0.00 in
00:09 49.2 °F 40.2 °F 30.11 in Calm   3.0 mph 71% 0.00 in
00:14 48.7 °F 40.1 °F 30.11 in Calm   2.0 mph 72% 0.00 in
00:19 48.2 °F 40.0 °F 30.11 in Calm   2.0 mph 73% 0.00 in
00:24 47.8 °F 39.9 °F 30.11 in Calm   1.0 mph 74% 0.00 in
00:29 47.4 °F 39.9 °F 30.11 in Calm   1.0 mph 75% 0.00 in
00:34 47.0 °F 39.8 °F 30.12 in Calm     76% 0.00 in
00:39 47.0 °F 40.2 °F 30.12 in Calm   1.0 mph 77% 0.00 in
00:44 46.9 °F 40.1 °F 30.12 in Calm   1.0 mph 77% 0.00 in
00:49 46.8 °F 40.0 °F 30.11 in Calm   3.0 mph 77% 0.00 in
00:54 46.6 °F 40.1 °F 30.11 in Calm   3.0 mph 78% 0.00 in
00:59 46.3 °F 39.8 °F 30.11 in Calm     78% 0.00 in
01:04 46.1 °F 40.0 °F 30.11 in Calm   1.0 mph 79% 0.00 in
01:09 46.1 °F 39.6 °F 30.11 in Calm   3.0 mph 78% 0.00 in
01:14 45.8 °F 39.3 °F 30.11 in Calm   3.0 mph 78% 0.00 in
01:19 45.5 °F 39.4 °F 30.11 in Calm   3.0 mph 79% 0.00 in
01:24 45.0 °F 39.2 °F 30.11 in NNE 1.0 mph 3.0 mph 80% 0.00 in
01:29 44.9 °F 39.1 °F 30.11 in Calm   3.0 mph 80% 0.00 in
01:34 44.9 °F 39.4 °F 30.11 in Calm   5.0 mph 81% 0.00 in
01:39 45.0 °F 39.5 °F 30.10 in Calm   5.0 mph 81% 0.00 in
01:44 45.5 °F 39.7 °F 30.10 in Calm   2.0 mph 80% 0.00 in
01:49 46.0 °F 39.9 °F 30.11 in Calm   2.0 mph 79% 0.00 in
01:55 46.5 °F 40.3 °F 30.10 in Calm   1.0 mph 79% 0.00 in
02:04 46.9 °F 40.1 °F 30.11 in Calm   2.0 mph 77% 0.00 in
02:09 46.9 °F 40.1 °F 30.10 in Calm   1.0 mph 77% 0.00 in
02:14 46.7 °F 39.9 °F 30.10 in Calm     77% 0.00 in
02:19 46.3 °F 39.5 °F 30.10 in Calm   1.0 mph 77% 0.00 in
02:24 46.0 °F 39.5 °F 30.10 in Calm   2.0 mph 78% 0.00 in
02:30 45.6 °F 39.5 °F 30.10 in Calm   2.0 mph 79% 0.00 in
02:35 45.3 °F 39.5 °F 30.10 in Calm   2.0 mph 80% 0.00 in
02:39 45.0 °F 38.9 °F 30.10 in Calm   1.0 mph 79% 0.00 in
02:44 44.7 °F 38.9 °F 30.09 in Calm   2.0 mph 80% 0.00 in
02:49 44.6 °F 39.1 °F 30.09 in Calm   2.0 mph 81% 0.00 in
02:54 44.5 °F 39.0 °F 30.09 in Calm   2.0 mph 81% 0.00 in
02:59 44.3 °F 39.2 °F 30.09 in Calm   2.0 mph 82% 0.00 in
03:04 44.3 °F 39.2 °F 30.09 in Calm   1.0 mph 82% 0.00 in
03:09 44.4 °F 39.3 °F 30.09 in Calm   1.0 mph 82% 0.00 in
03:14 44.3 °F 39.2 °F 30.09 in Calm   2.0 mph 82% 0.00 in
03:19 44.2 °F 39.1 °F 30.09 in Calm   2.0 mph 82% 0.00 in
03:24 44.1 °F 39.3 °F 30.09 in Calm   2.0 mph 83% 0.00 in
03:29 43.8 °F 38.7 °F 30.09 in Calm     82% 0.00 in
03:34 43.8 °F 39.0 °F 30.09 in Calm   1.0 mph 83% 0.00 in
03:39 44.0 °F 39.2 °F 30.09 in Calm   5.0 mph 83% 0.00 in
03:44 44.2 °F 39.4 °F 30.09 in Calm   5.0 mph 83% 0.00 in
03:49 44.4 °F 39.6 °F 30.09 in Calm   5.0 mph 83% 0.00 in
03:54 44.4 °F 39.3 °F 30.10 in Calm   2.0 mph 82% 0.00 in
03:59 44.5 °F 39.4 °F 30.10 in Calm   2.0 mph 82% 0.00 in
04:04 44.6 °F 39.4 °F 30.10 in Calm   1.0 mph 82% 0.00 in
04:09 44.3 °F 39.2 °F 30.10 in Calm   1.0 mph 82% 0.00 in
04:14 44.1 °F 39.3 °F 30.10 in Calm     83% 0.00 in
04:19 44.0 °F 39.2 °F 30.10 in Calm   1.0 mph 83% 0.00 in
04:24 43.7 °F 38.9 °F 30.10 in Calm   1.0 mph 83% 0.00 in
04:29 43.6 °F 39.1 °F 30.10 in Calm   1.0 mph 84% 0.00 in
04:34 43.6 °F 39.1 °F 30.10 in Calm     84% 0.00 in
04:39 43.3 °F 38.8 °F 30.10 in Calm     84% 0.00 in
04:44 43.3 °F 39.1 °F 30.11 in Calm     85% 0.00 in
04:49 43.2 °F 39.0 °F 30.11 in Calm     85% 0.00 in
04:54 43.1 °F 38.9 °F 30.11 in Calm     85% 0.00 in
04:59 43.0 °F 38.8 °F 30.11 in Calm     85% 0.00 in
05:04 42.9 °F 39.0 °F 30.11 in Calm     86% 0.00 in
05:09 42.8 °F 38.6 °F 30.11 in Calm   1.0 mph 85% 0.00 in
05:14 42.7 °F 38.8 °F 30.11 in Calm   1.0 mph 86% 0.00 in
05:19 42.7 °F 38.8 °F 30.11 in Calm   3.0 mph 86% 0.00 in
05:24 43.1 °F 39.2 °F 30.11 in Calm   3.0 mph 86% 0.00 in
05:29 43.1 °F 38.9 °F 30.12 in Calm   2.0 mph 85% 0.00 in
05:34 43.1 °F 38.9 °F 30.12 in Calm   2.0 mph 85% 0.00 in
05:39 42.9 °F 38.7 °F 30.12 in Calm   2.0 mph 85% 0.00 in
05:44 43.0 °F 39.1 °F 30.12 in Calm   2.0 mph 86% 0.00 in
05:49 42.9 °F 38.7 °F 30.12 in Calm     85% 0.00 in
05:54 42.7 °F 38.5 °F 30.13 in Calm   1.0 mph 85% 0.00 in
05:59 42.7 °F 38.8 °F 30.13 in Calm   2.0 mph 86% 0.00 in
06:04 42.6 °F 38.7 °F 30.13 in Calm   2.0 mph 86% 0.00 in
06:09 42.5 °F 38.6 °F 30.13 in Calm     86% 0.00 in
06:14 42.7 °F 39.1 °F 30.13 in Calm     87% 0.00 in
06:19 42.7 °F 39.1 °F 30.13 in Calm     87% 0.00 in
06:24 42.7 °F 39.1 °F 30.14 in Calm     87% 0.00 in
06:29 43.0 °F 39.4 °F 30.14 in Calm     87% 0.00 in
06:34 43.2 °F 39.6 °F 30.14 in Calm   1.0 mph 87% 0.00 in
06:39 43.1 °F 39.5 °F 30.14 in Calm   1.0 mph 87% 0.00 in
06:45 43.2 °F 39.6 °F 30.14 in Calm   2.0 mph 87% 0.00 in
06:54 44.1 °F 40.5 °F 30.15 in Calm   4.0 mph 87% 0.00 in
06:59 44.9 °F 41.0 °F 30.15 in Calm   4.0 mph 86% 0.00 in
07:04 45.6 °F 41.0 °F 30.15 in Calm   1.0 mph 84% 0.00 in
07:09 46.4 °F 41.2 °F 30.15 in SE 3.0 mph 5.0 mph 82% 0.00 in
07:14 47.3 °F 41.4 °F 30.15 in NNE 2.0 mph 8.0 mph 80% 0.00 in
07:19 48.0 °F 41.8 °F 30.15 in Calm   8.0 mph 79% 0.00 in
07:24 48.7 °F 41.8 °F 30.15 in NE 1.0 mph 4.0 mph 77% 0.00 in
07:29 49.5 °F 42.6 °F 30.15 in NE 1.0 mph 4.0 mph 77% 0.00 in
07:34 50.3 °F 42.3 °F 30.15 in NE 3.0 mph 8.0 mph 74% 0.00 in
07:39 50.6 °F 42.3 °F 30.15 in NE 2.0 mph 8.0 mph 73% 0.00 in
07:44 50.8 °F 42.5 °F 30.15 in NNE 3.0 mph 8.0 mph 73% 0.00 in
07:49 51.2 °F 42.5 °F 30.15 in NE 2.0 mph 8.0 mph 72% 0.00 in
07:54 51.7 °F 43.0 °F 30.15 in North 1.0 mph 8.0 mph 72% 0.00 in
07:59 52.1 °F 43.4 °F 30.15 in NNE 2.0 mph 7.0 mph 72% 0.00 in
08:04 52.4 °F 43.3 °F 30.15 in Calm   8.0 mph 71% 0.00 in
08:09 52.7 °F 42.8 °F 30.15 in NE 3.0 mph 10.0 mph 69% 0.00 in
08:14 53.0 °F 43.1 °F 30.15 in NE 2.0 mph 10.0 mph 69% 0.00 in
08:19 53.4 °F 43.1 °F 30.15 in NE 3.0 mph 8.0 mph 68% 0.00 in
08:24 53.4 °F 42.7 °F 30.15 in ENE 2.0 mph 9.0 mph 67% 0.00 in
08:29 53.3 °F 42.6 °F 30.15 in NE 4.0 mph 10.0 mph 67% 0.00 in
08:34 53.7 °F 43.8 °F 30.15 in Calm   10.0 mph 69% 0.00 in
08:39 54.3 °F 43.6 °F 30.15 in NE 1.0 mph 7.0 mph 67% 0.00 in
08:44 54.5 °F 43.4 °F 30.15 in ENE 3.0 mph 7.0 mph 66% 0.00 in
08:49 54.7 °F 43.6 °F 30.15 in NNE 1.0 mph 7.0 mph 66% 0.00 in
08:54 55.2 °F 44.8 °F 30.15 in NE 1.0 mph 9.0 mph 68% 0.00 in
08:59 55.3 °F 43.7 °F 30.15 in NE 6.0 mph 11.0 mph 65% 0.00 in
09:04 55.2 °F 43.2 °F 30.15 in NNE 7.0 mph 13.0 mph 64% 0.00 in
09:09 55.2 °F 43.6 °F 30.15 in NNE 4.0 mph 13.0 mph 65% 0.00 in
09:14 55.7 °F 43.7 °F 30.15 in NE 3.0 mph 9.0 mph 64% 0.00 in
09:19 56.0 °F 44.0 °F 30.15 in East 3.0 mph 9.0 mph 64% 0.00 in
09:24 56.3 °F 43.5 °F 30.15 in NE 4.0 mph 12.0 mph 62% 0.00 in
09:29 56.5 °F 44.9 °F 30.14 in Calm   12.0 mph 65% 0.00 in
09:34 57.0 °F 44.5 °F 30.15 in NNE 3.0 mph 8.0 mph 63% 0.00 in
09:39 57.1 °F 44.2 °F 30.14 in NNE 4.0 mph 9.0 mph 62% 0.00 in
09:44 57.3 °F 43.5 °F 30.14 in NNE 4.0 mph 10.0 mph 60% 0.00 in
09:49 57.4 °F 44.1 °F 30.15 in NNE 4.0 mph 10.0 mph 61% 0.00 in
09:54 57.7 °F 44.4 °F 30.15 in NNE 1.0 mph 11.0 mph 61% 0.00 in
09:59 58.1 °F 44.3 °F 30.15 in NE 4.0 mph 11.0 mph 60% 0.00 in
10:04 58.5 °F 44.7 °F 30.15 in ENE 1.0 mph 9.0 mph 60% 0.00 in
10:09 58.7 °F 44.4 °F 30.14 in NNE 6.0 mph 10.0 mph 59% 0.00 in
10:14 59.0 °F 44.3 °F 30.14 in NNE 4.0 mph 10.0 mph 58% 0.00 in
10:19 59.0 °F 45.1 °F 30.15 in North 2.0 mph 11.0 mph 60% 0.00 in
10:24 59.4 °F 45.5 °F 30.15 in ENE 4.0 mph 11.0 mph 60% 0.00 in
10:29 59.1 °F 44.8 °F 30.15 in NNE 6.0 mph 14.0 mph 59% 0.00 in
10:34 59.0 °F 44.3 °F 30.16 in NNE 5.0 mph 14.0 mph 58% 0.00 in
10:39 59.0 °F 44.3 °F 30.16 in NE 5.0 mph 12.0 mph 58% 0.00 in
10:44 59.0 °F 46.0 °F 30.16 in ENE 2.0 mph 12.0 mph 62% 0.00 in
10:49 59.3 °F 45.4 °F 30.16 in ENE 3.0 mph 12.0 mph 60% 0.00 in
10:54 59.7 °F 44.9 °F 30.16 in ENE 2.0 mph 11.0 mph 58% 0.00 in
10:59 60.7 °F 46.7 °F 30.16 in Calm   10.0 mph 60% 0.00 in
11:04 61.5 °F 45.2 °F 30.15 in ENE 3.0 mph 9.0 mph 55% 0.00 in
11:09 61.2 °F 44.9 °F 30.16 in NE 6.0 mph 10.0 mph 55% 0.00 in
11:14 61.3 °F 46.0 °F 30.16 in NNE 1.0 mph 10.0 mph 57% 0.00 in
11:19 61.3 °F 45.0 °F 30.15 in ENE 4.0 mph 10.0 mph 55% 0.00 in
11:24 61.3 °F 46.4 °F 30.15 in NE 4.0 mph 10.0 mph 58% 0.00 in
11:29 61.7 °F 45.4 °F 30.15 in NNE 6.0 mph 10.0 mph 55% 0.00 in
11:34 62.5 °F 48.0 °F 30.15 in NNE 1.0 mph 10.0 mph 59% 0.00 in
11:39 62.9 °F 45.5 °F 30.15 in ESE 3.0 mph 7.0 mph 53% 0.00 in
11:45 62.5 °F 45.6 °F 30.14 in NE 3.0 mph 10.0 mph 54% 0.00 in
11:54 62.4 °F 45.6 °F 30.14 in NNE 3.0 mph 7.0 mph 54% 0.00 in
11:59 61.6 °F 46.2 °F 30.14 in NNE 1.0 mph 7.0 mph 57% 0.00 in
12:04 61.5 °F 46.6 °F 30.14 in NNW 3.0 mph 11.0 mph 58% 0.00 in
12:09 61.2 °F 46.3 °F 30.14 in NNW 4.0 mph 11.0 mph 58% 0.00 in
12:14 61.8 °F 47.8 °F 30.14 in NE 3.0 mph 11.0 mph 60% 0.00 in
12:19 62.2 °F 46.8 °F 30.14 in North 2.0 mph 12.0 mph 57% 0.00 in
12:24 62.1 °F 47.2 °F 30.14 in North 3.0 mph 12.0 mph 58% 0.00 in
12:29 62.1 °F 46.2 °F 30.13 in NNW 1.0 mph 9.0 mph 56% 0.00 in
12:34 61.9 °F 46.0 °F 30.13 in NNE 5.0 mph 12.0 mph 56% 0.00 in
12:39 61.6 °F 46.2 °F 30.13 in Calm   12.0 mph 57% 0.00 in
12:44 61.6 °F 46.2 °F 30.13 in North 3.0 mph 9.0 mph 57% 0.00 in
12:49 61.8 °F 46.9 °F 30.13 in NNE 2.0 mph 9.0 mph 58% 0.00 in
12:54 62.2 °F 46.8 °F 30.13 in Calm   9.0 mph 57% 0.00 in
12:59 62.6 °F 47.2 °F 30.13 in North 1.0 mph 7.0 mph 57% 0.00 in
13:04 62.4 °F 45.6 °F 30.13 in NNE 3.0 mph 7.0 mph 54% 0.00 in
13:09 62.7 °F 47.3 °F 30.13 in East 1.0 mph 7.0 mph 57% 0.00 in
13:14 63.7 °F 47.2 °F 30.12 in North 3.0 mph 10.0 mph 55% 0.00 in
13:19 63.5 °F 46.6 °F 30.12 in Calm   10.0 mph 54% 0.00 in
13:24 63.2 °F 46.8 °F 30.12 in NNE 2.0 mph 8.0 mph 55% 0.00 in
13:29 62.9 °F 46.0 °F 30.12 in NE 6.0 mph 12.0 mph 54% 0.00 in
13:34 62.7 °F 45.8 °F 30.12 in NE 6.0 mph 12.0 mph 54% 0.00 in
13:39 63.0 °F 47.1 °F 30.11 in NNE 2.0 mph 9.0 mph 56% 0.00 in
13:44 63.6 °F 46.7 °F 30.12 in East 3.0 mph 12.0 mph 54% 0.00 in
13:49 63.6 °F 47.6 °F 30.11 in East 2.0 mph 12.0 mph 56% 0.00 in
13:54 63.3 °F 46.4 °F 30.11 in ENE 6.0 mph 12.0 mph 54% 0.00 in
13:59 63.2 °F 47.7 °F 30.11 in NNE 2.0 mph 10.0 mph 57% 0.00 in
14:04 64.7 °F 46.7 °F 30.11 in ENE 1.0 mph 6.0 mph 52% 0.00 in
14:09 64.4 °F 46.4 °F 30.11 in Calm   7.0 mph 52% 0.00 in
14:14 64.0 °F 47.0 °F 30.11 in Calm   7.0 mph 54% 0.00 in
14:19 64.8 °F 47.3 °F 30.11 in NNE 1.0 mph 9.0 mph 53% 0.00 in
14:24 64.5 °F 46.0 °F 30.11 in ENE 1.0 mph 9.0 mph 51% 0.00 in
14:29 64.2 °F 47.2 °F 30.11 in Calm   8.0 mph 54% 0.00 in
14:34 64.5 °F 46.5 °F 30.10 in Calm   6.0 mph 52% 0.00 in
14:39 64.5 °F 47.0 °F 30.10 in ENE 4.0 mph 8.0 mph 53% 0.00 in
14:44 65.2 °F 46.6 °F 30.10 in NNE 2.0 mph 9.0 mph 51% 0.00 in
14:49 65.8 °F 47.2 °F 30.11 in SE 1.0 mph 9.0 mph 51% 0.00 in
14:54 64.9 °F 45.3 °F 30.11 in East 3.0 mph 9.0 mph 49% 0.00 in
14:59 64.8 °F 47.3 °F 30.11 in NNE 2.0 mph 8.0 mph 53% 0.00 in
15:04 65.0 °F 46.4 °F 30.10 in NNW 4.0 mph 10.0 mph 51% 0.00 in
15:09 65.1 °F 48.1 °F 30.10 in North 2.0 mph 10.0 mph 54% 0.00 in
15:14 66.2 °F 47.0 °F 30.10 in NE 1.0 mph 7.0 mph 50% 0.00 in
15:19 66.3 °F 46.6 °F 30.10 in ENE 5.0 mph 9.0 mph 49% 0.00 in
15:24 65.9 °F 46.8 °F 30.09 in NE 3.0 mph 9.0 mph 50% 0.00 in
15:29 65.5 °F 46.4 °F 30.09 in NNE 1.0 mph 9.0 mph 50% 0.00 in
15:34 65.9 °F 47.8 °F 30.09 in ENE 1.0 mph 9.0 mph 52% 0.00 in
15:39 66.0 °F 45.8 °F 30.09 in NE 2.0 mph 9.0 mph 48% 0.00 in
15:44 65.6 °F 46.5 °F 30.09 in NNE 1.0 mph 9.0 mph 50% 0.00 in
15:49 66.0 °F 47.9 °F 30.08 in Calm   9.0 mph 52% 0.00 in
15:55 67.4 °F 46.5 °F 30.08 in Calm   7.0 mph 47% 0.00 in
16:04 67.0 °F 46.1 °F 30.08 in North 3.0 mph 9.0 mph 47% 0.00 in
16:09 66.9 °F 46.6 °F 30.08 in NE 3.0 mph 9.0 mph 48% 0.00 in
16:14 66.1 °F 45.9 °F 30.08 in ESE 1.0 mph 8.0 mph 48% 0.00 in
16:19 66.4 °F 46.7 °F 30.08 in Calm   7.0 mph 49% 0.00 in
16:24 67.1 °F 47.9 °F 30.08 in North 1.0 mph 9.0 mph 50% 0.00 in
16:29 67.2 °F 45.2 °F 30.08 in NE 2.0 mph 9.0 mph 45% 0.00 in
16:34 66.5 °F 46.8 °F 30.08 in Calm   6.0 mph 49% 0.00 in
16:39 66.4 °F 45.6 °F 30.08 in NE 1.0 mph 6.0 mph 47% 0.00 in
16:44 66.1 °F 44.7 °F 30.08 in NNE 2.0 mph 9.0 mph 46% 0.00 in
16:49 65.7 °F 44.9 °F 30.08 in NE 1.0 mph 9.0 mph 47% 0.00 in
16:54 66.0 °F 44.1 °F 30.08 in North 3.0 mph 6.0 mph 45% 0.00 in
17:04 67.6 °F 44.9 °F 30.08 in North 1.0 mph 5.0 mph 44% 0.00 in
17:09 67.5 °F 44.8 °F 30.08 in NNE 2.0 mph 7.0 mph 44% 0.00 in
17:14 67.0 °F 44.4 °F 30.08 in NE 1.0 mph 8.0 mph 44% 0.00 in
17:19 66.6 °F 45.2 °F 30.08 in North 2.0 mph 9.0 mph 46% 0.00 in
17:24 66.7 °F 47.0 °F 30.08 in North 1.0 mph 9.0 mph 49% 0.00 in
17:29 67.1 °F 45.6 °F 30.08 in NNW 2.0 mph 9.0 mph 46% 0.00 in
17:34 67.4 °F 44.8 °F 30.09 in North 3.0 mph 9.0 mph 44% 0.00 in
17:39 67.0 °F 43.8 °F 30.09 in NNE 4.0 mph 9.0 mph 43% 0.00 in
17:44 66.5 °F 44.5 °F 30.09 in NE 1.0 mph 9.0 mph 45% 0.00 in
17:49 66.2 °F 44.3 °F 30.09 in NNE 2.0 mph 5.0 mph 45% 0.00 in
17:54 66.4 °F 44.4 °F 30.09 in NNE 4.0 mph 9.0 mph 45% 0.00 in
17:59 66.5 °F 43.3 °F 30.09 in NNE 6.0 mph 12.0 mph 43% 0.00 in
18:04 66.0 °F 44.1 °F 30.08 in NE 1.0 mph 12.0 mph 45% 0.00 in
18:09 65.6 °F 44.8 °F 30.08 in NE 1.0 mph 9.0 mph 47% 0.00 in
18:14 65.2 °F 43.9 °F 30.08 in NNE 5.0 mph 8.0 mph 46% 0.00 in
18:19 65.0 °F 44.3 °F 30.08 in NE 3.0 mph 8.0 mph 47% 0.00 in
18:24 65.3 °F 45.1 °F 30.08 in NE 1.0 mph 8.0 mph 48% 0.00 in
18:29 65.8 °F 44.5 °F 30.08 in NE 1.0 mph 6.0 mph 46% 0.00 in
18:34 65.9 °F 44.6 °F 30.08 in NE 1.0 mph 5.0 mph 46% 0.00 in
18:44 65.6 °F 43.7 °F 30.08 in NE 4.0 mph 7.0 mph 45% 0.00 in
18:50 64.9 °F 44.2 °F 30.08 in NNE 4.0 mph 11.0 mph 47% 0.00 in
18:55 64.5 °F 43.3 °F 30.08 in Calm   11.0 mph 46% 0.00 in
19:00 64.5 °F 44.9 °F 30.08 in NNE 2.0 mph 8.0 mph 49% 0.00 in
19:05 64.7 °F 44.0 °F 30.08 in NNE 2.0 mph 8.0 mph 47% 0.00 in
19:09 64.7 °F 43.5 °F 30.08 in Calm   7.0 mph 46% 0.00 in
19:14 64.5 °F 43.8 °F 30.09 in NNE 3.0 mph 6.0 mph 47% 0.00 in
19:20 64.2 °F 43.0 °F 30.08 in NNE 3.0 mph 8.0 mph 46% 0.00 in
19:25 63.9 °F 42.7 °F 30.08 in Calm   8.0 mph 46% 0.00 in
19:30 63.6 °F 43.6 °F 30.09 in NNE 2.0 mph 6.0 mph 48% 0.00 in
19:35 63.2 °F 42.7 °F 30.09 in NNE 2.0 mph 6.0 mph 47% 0.00 in
19:45 62.6 °F 42.1 °F 30.09 in NNE 3.0 mph 6.0 mph 47% 0.00 in
19:50 62.2 °F 42.3 °F 30.09 in NNE 1.0 mph 6.0 mph 48% 0.00 in
19:55 61.7 °F 42.4 °F 30.09 in NE 1.0 mph 8.0 mph 49% 0.00 in
20:00 61.2 °F 42.9 °F 30.09 in Calm   8.0 mph 51% 0.00 in
20:05 60.3 °F 43.1 °F 30.09 in Calm   2.0 mph 53% 0.00 in
20:09 59.0 °F 43.3 °F 30.09 in Calm   2.0 mph 56% 0.00 in
20:15 57.8 °F 43.1 °F 30.09 in Calm     58% 0.00 in
20:20 56.8 °F 43.1 °F 30.09 in Calm     60% 0.00 in
20:24 56.0 °F 42.3 °F 30.09 in Calm   1.0 mph 60% 0.00 in
20:30 55.5 °F 42.3 °F 30.09 in Calm   1.0 mph 61% 0.00 in
20:35 55.2 °F 42.4 °F 30.10 in Calm     62% 0.00 in
20:40 54.8 °F 42.0 °F 30.09 in Calm     62% 0.00 in
20:45 54.4 °F 42.1 °F 30.09 in Calm   1.0 mph 63% 0.00 in
20:49 54.3 °F 42.0 °F 30.09 in Calm   2.0 mph 63% 0.00 in
20:55 54.2 °F 42.3 °F 30.09 in Calm   2.0 mph 64% 0.00 in
21:00 53.9 °F 42.0 °F 30.09 in Calm     64% 0.00 in
21:05 53.7 °F 41.8 °F 30.09 in Calm   2.0 mph 64% 0.00 in
21:10 53.7 °F 41.8 °F 30.09 in Calm   2.0 mph 64% 0.00 in
21:15 53.6 °F 41.7 °F 30.09 in Calm     64% 0.00 in
21:20 53.4 °F 41.5 °F 30.09 in Calm     64% 0.00 in
21:25 53.0 °F 41.6 °F 30.09 in Calm     65% 0.00 in
21:35 52.6 °F 41.6 °F 30.09 in Calm     66% 0.00 in
21:40 52.2 °F 40.8 °F 30.09 in Calm     65% 0.00 in
21:45 51.9 °F 41.3 °F 30.09 in Calm     67% 0.00 in
21:50 51.6 °F 40.6 °F 30.09 in Calm     66% 0.00 in
21:55 51.5 °F 40.9 °F 30.09 in Calm     67% 0.00 in
22:00 51.2 °F 40.6 °F 30.09 in Calm     67% 0.00 in
22:05 51.1 °F 40.9 °F 30.09 in Calm     68% 0.00 in
22:10 50.6 °F 40.8 °F 30.09 in Calm     69% 0.00 in
22:15 50.3 °F 40.1 °F 30.09 in Calm     68% 0.00 in
22:20 50.1 °F 40.3 °F 30.09 in Calm     69% 0.00 in
22:25 49.9 °F 40.1 °F 30.09 in Calm     69% 0.00 in
22:30 50.0 °F 40.6 °F 30.09 in Calm     70% 0.00 in
22:35 50.2 °F 40.4 °F 30.09 in Calm   2.0 mph 69% 0.00 in
22:45 50.5 °F 40.3 °F 30.08 in Calm   2.0 mph 68% 0.00 in
22:50 50.7 °F 40.5 °F 30.08 in Calm   2.0 mph 68% 0.00 in
22:55 50.7 °F 40.5 °F 30.08 in Calm   2.0 mph 68% 0.00 in
23:00 50.6 °F 40.1 °F 30.08 in Calm   2.0 mph 67% 0.00 in
23:05 50.5 °F 40.0 °F 30.08 in Calm   4.0 mph 67% 0.00 in
23:10 50.2 °F 39.3 °F 30.08 in Calm   4.0 mph 66% 0.00 in
23:15 50.1 °F 40.0 °F 30.08 in Calm   1.0 mph 68% 0.00 in
23:20 49.8 °F 39.3 °F 30.08 in Calm   1.0 mph 67% 0.00 in
23:25 49.7 °F 39.2 °F 30.08 in Calm     67% 0.00 in
23:30 49.9 °F 39.4 °F 30.08 in Calm     67% 0.00 in
23:35 49.8 °F 38.9 °F 30.08 in Calm     66% 0.00 in
23:40 50.0 °F 39.1 °F 30.08 in Calm     66% 0.00 in
23:45 50.4 °F 39.1 °F 30.08 in Calm     65% 0.00 in
23:50 51.0 °F 38.9 °F 30.08 in Calm   2.0 mph 63% 0.00 in
23:55 51.5 °F 38.9 °F 30.08 in Calm   2.0 mph 62% 0.00 in
Westford Weather
Compliments of Weather Underground

 
 
Current Radar Loop:

Copyright © WestfordWeather.net 2007-2014. All rights reserved.